WAT3092 KRSW-KORL
Flight info
| Callsign | WAT3092 |
|---|---|
| Flight time | 0h 43m |
| Altitude | 14000 |
| Route | MINEE |
| Aircraft | BE20/L-VGDW/C |
Departure
| Time | 2026-05-06 18:27 |
|---|---|
| Airport | Southwest Florida International Airport (KRSW) |
Arrival
| Time | 2026-05-06 19:10 |
|---|---|
| Airport | Orlando Executive Airport (KORL) |
| Time | Latitude | Longitude | Altitude | Speed | Heading |
|---|---|---|---|---|---|
| 2026-05-06 18:13 | 26.53759 | -81.76119 | 33 ft | 0 kts | 232° |
| 2026-05-06 18:17 | 26.53755 | -81.76124 | 33 ft | 1 kts | 232° |
| 2026-05-06 18:17 | 26.53740 | -81.76129 | 33 ft | 3 kts | 172° |
| 2026-05-06 18:18 | 26.53697 | -81.76096 | 32 ft | 9 kts | 129° |
| 2026-05-06 18:18 | 26.53684 | -81.76032 | 31 ft | 8 kts | 96° |
| 2026-05-06 18:18 | 26.53668 | -81.75963 | 30 ft | 9 kts | 128° |
| 2026-05-06 18:18 | 26.53621 | -81.75922 | 29 ft | 8 kts | 151° |
| 2026-05-06 18:19 | 26.53574 | -81.75886 | 30 ft | 7 kts | 143° |
| 2026-05-06 18:19 | 26.53546 | -81.75844 | 30 ft | 6 kts | 76° |
| 2026-05-06 18:19 | 26.53578 | -81.75794 | 30 ft | 8 kts | 51° |
| 2026-05-06 18:19 | 26.53614 | -81.75741 | 30 ft | 8 kts | 54° |
| 2026-05-06 18:20 | 26.53650 | -81.75682 | 30 ft | 9 kts | 57° |
| 2026-05-06 18:20 | 26.53686 | -81.75621 | 30 ft | 9 kts | 53° |
| 2026-05-06 18:20 | 26.53725 | -81.75568 | 30 ft | 8 kts | 53° |
| 2026-05-06 18:20 | 26.53758 | -81.75517 | 30 ft | 7 kts | 54° |
| 2026-05-06 18:21 | 26.53789 | -81.75469 | 31 ft | 7 kts | 55° |
| 2026-05-06 18:21 | 26.53817 | -81.75424 | 31 ft | 6 kts | 56° |
| 2026-05-06 18:21 | 26.53842 | -81.75381 | 31 ft | 6 kts | 57° |
| 2026-05-06 18:21 | 26.53865 | -81.75339 | 31 ft | 6 kts | 55° |
| 2026-05-06 18:22 | 26.53903 | -81.75293 | 31 ft | 12 kts | 44° |
| 2026-05-06 18:22 | 26.53953 | -81.75227 | 31 ft | 10 kts | 55° |
| 2026-05-06 18:22 | 26.53993 | -81.75159 | 31 ft | 11 kts | 57° |
| 2026-05-06 18:22 | 26.54045 | -81.75073 | 31 ft | 15 kts | 54° |
| 2026-05-06 18:23 | 26.54116 | -81.74963 | 31 ft | 19 kts | 55° |
| 2026-05-06 18:23 | 26.54201 | -81.74834 | 31 ft | 21 kts | 53° |
| 2026-05-06 18:23 | 26.54287 | -81.74699 | 31 ft | 20 kts | 54° |
| 2026-05-06 18:23 | 26.54363 | -81.74581 | 32 ft | 17 kts | 53° |
| 2026-05-06 18:24 | 26.54429 | -81.74485 | 32 ft | 14 kts | 53° |
| 2026-05-06 18:24 | 26.54485 | -81.74398 | 32 ft | 12 kts | 55° |
| 2026-05-06 18:24 | 26.54534 | -81.74319 | 32 ft | 11 kts | 56° |
| 2026-05-06 18:24 | 26.54579 | -81.74250 | 32 ft | 10 kts | 52° |
| 2026-05-06 18:25 | 26.54616 | -81.74197 | 32 ft | 0 kts | 50° |
| 2026-05-06 18:25 | 26.54617 | -81.74197 | 32 ft | 0 kts | 50° |
| 2026-05-06 18:25 | 26.54622 | -81.74191 | 32 ft | 2 kts | 50° |
| 2026-05-06 18:25 | 26.54639 | -81.74166 | 32 ft | 5 kts | 54° |
| 2026-05-06 18:26 | 26.54649 | -81.74110 | 32 ft | 11 kts | 118° |
| 2026-05-06 18:26 | 26.54556 | -81.74085 | 32 ft | 21 kts | 225° |
| 2026-05-06 18:26 | 26.54297 | -81.74462 | 32 ft | 108 kts | 232° |
| 2026-05-06 18:26 | 26.53746 | -81.75285 | 273 ft | 145 kts | 233° |
| 2026-05-06 18:27 | 26.53127 | -81.76097 | 1093 ft | 136 kts | 224° |
| 2026-05-06 18:27 | 26.52453 | -81.76857 | 1720 ft | 142 kts | 224° |
| 2026-05-06 18:27 | 26.51923 | -81.77909 | 1816 ft | 180 kts | 261° |
| 2026-05-06 18:27 | 26.52239 | -81.79340 | 1958 ft | 199 kts | 308° |
| 2026-05-06 18:28 | 26.53381 | -81.80114 | 2427 ft | 195 kts | 347° |
| 2026-05-06 18:28 | 26.54698 | -81.80397 | 2888 ft | 195 kts | 351° |
| 2026-05-06 18:28 | 26.56043 | -81.80521 | 3308 ft | 195 kts | 7° |
| 2026-05-06 18:28 | 26.57329 | -81.80349 | 4000 ft | 182 kts | 6° |
| 2026-05-06 18:29 | 26.58525 | -81.80266 | 4751 ft | 170 kts | 4° |
| 2026-05-06 18:29 | 26.59684 | -81.80213 | 5322 ft | 170 kts | 3° |
| 2026-05-06 18:29 | 26.60871 | -81.80167 | 5855 ft | 171 kts | 3° |
| 2026-05-06 18:29 | 26.62053 | -81.80122 | 6365 ft | 172 kts | 3° |
| 2026-05-06 18:30 | 26.63246 | -81.80078 | 6860 ft | 174 kts | 3° |
| 2026-05-06 18:30 | 26.64453 | -81.80033 | 7344 ft | 176 kts | 3° |
| 2026-05-06 18:30 | 26.65676 | -81.79987 | 7911 ft | 177 kts | 3° |
| 2026-05-06 18:30 | 26.66891 | -81.79942 | 8469 ft | 178 kts | 3° |
| 2026-05-06 18:31 | 26.68129 | -81.79896 | 9007 ft | 179 kts | 3° |
| 2026-05-06 18:31 | 26.68939 | -81.79865 | 9345 ft | 180 kts | 3° |
| 2026-05-06 18:31 | 26.70185 | -81.79819 | 9848 ft | 182 kts | 3° |
| 2026-05-06 18:31 | 26.71459 | -81.79771 | 10342 ft | 183 kts | 3° |
| 2026-05-06 18:32 | 26.72713 | -81.79724 | 10810 ft | 184 kts | 3° |
| 2026-05-06 18:32 | 26.73997 | -81.79676 | 11269 ft | 186 kts | 3° |
| 2026-05-06 18:32 | 26.75294 | -81.79628 | 11715 ft | 187 kts | 3° |
| 2026-05-06 18:32 | 26.76581 | -81.79580 | 12141 ft | 188 kts | 3° |
| 2026-05-06 18:33 | 26.77889 | -81.79531 | 12556 ft | 190 kts | 3° |
| 2026-05-06 18:33 | 26.79219 | -81.79481 | 12925 ft | 193 kts | 3° |
| 2026-05-06 18:33 | 26.80613 | -81.79427 | 12999 ft | 209 kts | 3° |
| 2026-05-06 18:33 | 26.82134 | -81.79370 | 13007 ft | 224 kts | 2° |
| 2026-05-06 18:34 | 26.83723 | -81.79311 | 13005 ft | 233 kts | 2° |
| 2026-05-06 18:34 | 26.85365 | -81.79250 | 13004 ft | 240 kts | 2° |
| 2026-05-06 18:34 | 26.87038 | -81.79187 | 13002 ft | 245 kts | 2° |
| 2026-05-06 18:34 | 26.88741 | -81.79123 | 13001 ft | 248 kts | 2° |
| 2026-05-06 18:35 | 26.90484 | -81.79057 | 13001 ft | 250 kts | 2° |
| 2026-05-06 18:35 | 26.92232 | -81.78992 | 13000 ft | 252 kts | 2° |
| 2026-05-06 18:35 | 26.93969 | -81.78927 | 13000 ft | 252 kts | 2° |
| 2026-05-06 18:35 | 26.95718 | -81.78861 | 13057 ft | 251 kts | 2° |
| 2026-05-06 18:36 | 26.97446 | -81.78796 | 13095 ft | 251 kts | 2° |
| 2026-05-06 18:36 | 26.99208 | -81.78729 | 13100 ft | 252 kts | 2° |
| 2026-05-06 18:36 | 27.00940 | -81.78664 | 13100 ft | 253 kts | 2° |
| 2026-05-06 18:36 | 27.02703 | -81.78598 | 13100 ft | 253 kts | 2° |
| 2026-05-06 18:37 | 27.04469 | -81.78532 | 13100 ft | 254 kts | 2° |
| 2026-05-06 18:37 | 27.06219 | -81.78465 | 13100 ft | 254 kts | 2° |
| 2026-05-06 18:37 | 27.07997 | -81.78399 | 13100 ft | 254 kts | 2° |
| 2026-05-06 18:37 | 27.09761 | -81.78332 | 13100 ft | 254 kts | 2° |
| 2026-05-06 18:38 | 27.11499 | -81.78266 | 13100 ft | 254 kts | 2° |
| 2026-05-06 18:38 | 27.13266 | -81.78200 | 13100 ft | 254 kts | 2° |
| 2026-05-06 18:38 | 27.15043 | -81.78133 | 13100 ft | 254 kts | 2° |
| 2026-05-06 18:38 | 27.16806 | -81.78066 | 13100 ft | 254 kts | 2° |
| 2026-05-06 18:39 | 27.18584 | -81.77999 | 13100 ft | 254 kts | 2° |
| 2026-05-06 18:39 | 27.20355 | -81.77932 | 13100 ft | 254 kts | 2° |
| 2026-05-06 18:39 | 27.22098 | -81.77866 | 13100 ft | 254 kts | 2° |
| 2026-05-06 18:40 | 27.25639 | -81.77733 | 13100 ft | 254 kts | 2° |
| 2026-05-06 18:40 | 27.27415 | -81.77666 | 13100 ft | 254 kts | 2° |
| 2026-05-06 18:40 | 27.29168 | -81.77599 | 13100 ft | 254 kts | 2° |
| 2026-05-06 18:40 | 27.30952 | -81.77531 | 13100 ft | 254 kts | 2° |
| 2026-05-06 18:41 | 27.32703 | -81.77465 | 13100 ft | 254 kts | 2° |
| 2026-05-06 18:41 | 27.34463 | -81.77399 | 13100 ft | 254 kts | 2° |
| 2026-05-06 18:41 | 27.36230 | -81.77331 | 13100 ft | 254 kts | 2° |
| 2026-05-06 18:41 | 27.38017 | -81.77264 | 13100 ft | 254 kts | 2° |
| 2026-05-06 18:42 | 27.39763 | -81.77198 | 13100 ft | 254 kts | 2° |
| 2026-05-06 18:42 | 27.41530 | -81.77131 | 13100 ft | 255 kts | 2° |
| 2026-05-06 18:42 | 27.43302 | -81.77064 | 13100 ft | 255 kts | 2° |
| 2026-05-06 18:42 | 27.45089 | -81.76996 | 13100 ft | 255 kts | 2° |
| 2026-05-06 18:43 | 27.46853 | -81.76929 | 13100 ft | 255 kts | 2° |
| 2026-05-06 18:43 | 27.48610 | -81.76862 | 13100 ft | 255 kts | 2° |
| 2026-05-06 18:43 | 27.50384 | -81.76794 | 13100 ft | 255 kts | 2° |
| 2026-05-06 18:43 | 27.52164 | -81.76727 | 13100 ft | 255 kts | 2° |
| 2026-05-06 18:44 | 27.53934 | -81.76660 | 13100 ft | 255 kts | 2° |
| 2026-05-06 18:44 | 27.55686 | -81.76617 | 13000 ft | 258 kts | 2° |
| 2026-05-06 18:44 | 27.57499 | -81.76578 | 12878 ft | 262 kts | 2° |
| 2026-05-06 18:44 | 27.59332 | -81.76537 | 12754 ft | 264 kts | 2° |
| 2026-05-06 18:45 | 27.61125 | -81.76150 | 12630 ft | 264 kts | 16° |
| 2026-05-06 18:45 | 27.62897 | -81.75581 | 12505 ft | 265 kts | 17° |
| 2026-05-06 18:45 | 27.64664 | -81.75005 | 12381 ft | 266 kts | 17° |
| 2026-05-06 18:45 | 27.66430 | -81.74429 | 12257 ft | 266 kts | 17° |
| 2026-05-06 18:46 | 27.68209 | -81.73847 | 12132 ft | 266 kts | 17° |
| 2026-05-06 18:46 | 27.70002 | -81.73262 | 12006 ft | 267 kts | 17° |
| 2026-05-06 18:46 | 27.71560 | -81.72753 | 11896 ft | 267 kts | 17° |
| 2026-05-06 18:46 | 27.73043 | -81.72269 | 11792 ft | 267 kts | 17° |
| 2026-05-06 18:47 | 27.74811 | -81.71691 | 11668 ft | 266 kts | 17° |
| 2026-05-06 18:47 | 27.76587 | -81.71111 | 11539 ft | 263 kts | 17° |
| 2026-05-06 18:47 | 27.78343 | -81.70538 | 11412 ft | 261 kts | 17° |
| 2026-05-06 18:47 | 27.80086 | -81.69971 | 11285 ft | 260 kts | 17° |
| 2026-05-06 18:48 | 27.81818 | -81.69406 | 11159 ft | 259 kts | 17° |
| 2026-05-06 18:48 | 27.83550 | -81.68842 | 11033 ft | 259 kts | 17° |
| 2026-05-06 18:48 | 27.85290 | -81.68276 | 10907 ft | 258 kts | 17° |
| 2026-05-06 18:48 | 27.87003 | -81.67718 | 10782 ft | 258 kts | 17° |
| 2026-05-06 18:49 | 27.88724 | -81.67158 | 10657 ft | 258 kts | 17° |
| 2026-05-06 18:49 | 27.90468 | -81.66590 | 10530 ft | 258 kts | 17° |
| 2026-05-06 18:49 | 27.92185 | -81.66032 | 10405 ft | 258 kts | 17° |
| 2026-05-06 18:49 | 27.93914 | -81.65469 | 10279 ft | 258 kts | 17° |
| 2026-05-06 18:50 | 27.95621 | -81.64913 | 10155 ft | 258 kts | 17° |
| 2026-05-06 18:50 | 27.97361 | -81.64348 | 10028 ft | 258 kts | 17° |
| 2026-05-06 18:50 | 27.99085 | -81.63787 | 9903 ft | 258 kts | 17° |
| 2026-05-06 18:50 | 28.00815 | -81.63225 | 9777 ft | 258 kts | 17° |
| 2026-05-06 18:51 | 28.02527 | -81.62669 | 9652 ft | 258 kts | 17° |
| 2026-05-06 18:51 | 28.04262 | -81.62105 | 9526 ft | 258 kts | 17° |
| 2026-05-06 18:51 | 28.05975 | -81.61548 | 9401 ft | 258 kts | 17° |
| 2026-05-06 18:51 | 28.07705 | -81.60986 | 9275 ft | 258 kts | 17° |
| 2026-05-06 18:52 | 28.09432 | -81.60425 | 9149 ft | 258 kts | 17° |
| 2026-05-06 18:52 | 28.11072 | -81.59893 | 9030 ft | 258 kts | 17° |
| 2026-05-06 18:52 | 28.12812 | -81.59328 | 8903 ft | 258 kts | 17° |
| 2026-05-06 18:52 | 28.14521 | -81.58773 | 8779 ft | 258 kts | 17° |
| 2026-05-06 18:53 | 28.16249 | -81.58212 | 8653 ft | 258 kts | 17° |
| 2026-05-06 18:53 | 28.17965 | -81.57655 | 8529 ft | 258 kts | 17° |
| 2026-05-06 18:53 | 28.19714 | -81.57088 | 8402 ft | 258 kts | 17° |
| 2026-05-06 18:53 | 28.21433 | -81.56531 | 8277 ft | 258 kts | 17° |
| 2026-05-06 18:54 | 28.23165 | -81.55969 | 8151 ft | 258 kts | 17° |
| 2026-05-06 18:54 | 28.24895 | -81.55408 | 8025 ft | 258 kts | 17° |
| 2026-05-06 18:54 | 28.26621 | -81.54848 | 7899 ft | 258 kts | 16° |
| 2026-05-06 18:54 | 28.28336 | -81.54292 | 7774 ft | 258 kts | 16° |
| 2026-05-06 18:55 | 28.30074 | -81.53729 | 7648 ft | 258 kts | 16° |
| 2026-05-06 18:55 | 28.31798 | -81.53171 | 7523 ft | 258 kts | 16° |
| 2026-05-06 18:55 | 28.33515 | -81.52615 | 7398 ft | 258 kts | 16° |
| 2026-05-06 18:55 | 28.35253 | -81.52052 | 7271 ft | 258 kts | 16° |
| 2026-05-06 18:56 | 28.36992 | -81.51489 | 7145 ft | 258 kts | 16° |
| 2026-05-06 18:56 | 28.38721 | -81.50929 | 7019 ft | 258 kts | 16° |
| 2026-05-06 18:56 | 28.40429 | -81.50375 | 6895 ft | 258 kts | 16° |
| 2026-05-06 18:56 | 28.42166 | -81.49813 | 6768 ft | 258 kts | 16° |
| 2026-05-06 18:57 | 28.43873 | -81.49261 | 6644 ft | 258 kts | 16° |
| 2026-05-06 18:57 | 28.45596 | -81.48703 | 6519 ft | 258 kts | 16° |
| 2026-05-06 18:57 | 28.47311 | -81.48148 | 6394 ft | 258 kts | 16° |
| 2026-05-06 18:57 | 28.49048 | -81.47587 | 6267 ft | 258 kts | 16° |
| 2026-05-06 18:58 | 28.50760 | -81.47033 | 6143 ft | 258 kts | 16° |
| 2026-05-06 18:58 | 28.52490 | -81.46474 | 6017 ft | 258 kts | 16° |
| 2026-05-06 18:58 | 28.54222 | -81.45914 | 5891 ft | 258 kts | 16° |
| 2026-05-06 18:58 | 28.55830 | -81.45054 | 5739 ft | 257 kts | 43° |
| 2026-05-06 18:59 | 28.56664 | -81.43293 | 5608 ft | 255 kts | 80° |
| 2026-05-06 18:59 | 28.56424 | -81.41331 | 5487 ft | 255 kts | 111° |
| 2026-05-06 18:59 | 28.55681 | -81.39481 | 5368 ft | 255 kts | 115° |
| 2026-05-06 18:59 | 28.54905 | -81.37655 | 5242 ft | 256 kts | 115° |
| 2026-05-06 19:00 | 28.54144 | -81.35872 | 5116 ft | 252 kts | 115° |
| 2026-05-06 19:00 | 28.53379 | -81.34081 | 4988 ft | 249 kts | 116° |
| 2026-05-06 19:00 | 28.52623 | -81.32313 | 4862 ft | 247 kts | 115° |
| 2026-05-06 19:00 | 28.51862 | -81.30534 | 4734 ft | 246 kts | 115° |
| 2026-05-06 19:01 | 28.51119 | -81.28796 | 4610 ft | 246 kts | 115° |
| 2026-05-06 19:01 | 28.50381 | -81.27068 | 4484 ft | 242 kts | 115° |
| 2026-05-06 19:01 | 28.49913 | -81.25256 | 4337 ft | 240 kts | 90° |
| 2026-05-06 19:01 | 28.50069 | -81.23387 | 4225 ft | 238 kts | 83° |
| 2026-05-06 19:02 | 28.50509 | -81.21564 | 4097 ft | 237 kts | 71° |
| 2026-05-06 19:02 | 28.51053 | -81.19818 | 3973 ft | 236 kts | 70° |
| 2026-05-06 19:02 | 28.51609 | -81.18054 | 3848 ft | 236 kts | 70° |
| 2026-05-06 19:02 | 28.52164 | -81.16299 | 3724 ft | 236 kts | 70° |
| 2026-05-06 19:03 | 28.52721 | -81.14541 | 3599 ft | 236 kts | 70° |
| 2026-05-06 19:03 | 28.53274 | -81.12796 | 3475 ft | 236 kts | 70° |
| 2026-05-06 19:03 | 28.53838 | -81.11016 | 3348 ft | 236 kts | 70° |
| 2026-05-06 19:03 | 28.54396 | -81.09257 | 3223 ft | 236 kts | 70° |
| 2026-05-06 19:04 | 28.54888 | -81.07706 | 3113 ft | 236 kts | 70° |
| 2026-05-06 19:04 | 28.55575 | -81.05998 | 2964 ft | 237 kts | 51° |
| 2026-05-06 19:04 | 28.56973 | -81.05064 | 2832 ft | 237 kts | 12° |
| 2026-05-06 19:04 | 28.58518 | -81.05276 | 2710 ft | 233 kts | 340° |
| 2026-05-06 19:05 | 28.60008 | -81.06001 | 2585 ft | 229 kts | 337° |
| 2026-05-06 19:05 | 28.61459 | -81.06785 | 2448 ft | 228 kts | 328° |
| 2026-05-06 19:05 | 28.62384 | -81.08218 | 2307 ft | 228 kts | 286° |
| 2026-05-06 19:05 | 28.62589 | -81.10005 | 2194 ft | 227 kts | 275° |
| 2026-05-06 19:06 | 28.62585 | -81.11815 | 2101 ft | 224 kts | 257° |
| 2026-05-06 19:06 | 28.62060 | -81.13469 | 2099 ft | 215 kts | 246° |
| 2026-05-06 19:06 | 28.61464 | -81.15019 | 2098 ft | 210 kts | 246° |
| 2026-05-06 19:06 | 28.60890 | -81.16522 | 2097 ft | 205 kts | 246° |
| 2026-05-06 19:07 | 28.60326 | -81.18008 | 2098 ft | 201 kts | 246° |
| 2026-05-06 19:07 | 28.59768 | -81.19480 | 2099 ft | 198 kts | 246° |
| 2026-05-06 19:07 | 28.59227 | -81.20909 | 2099 ft | 197 kts | 246° |
| 2026-05-06 19:07 | 28.58723 | -81.22244 | 1975 ft | 171 kts | 246° |
| 2026-05-06 19:08 | 28.58266 | -81.23450 | 1751 ft | 160 kts | 246° |
| 2026-05-06 19:08 | 28.57838 | -81.24580 | 1546 ft | 155 kts | 246° |
| 2026-05-06 19:08 | 28.57408 | -81.25713 | 1340 ft | 152 kts | 246° |
| 2026-05-06 19:08 | 28.56991 | -81.26812 | 1141 ft | 151 kts | 246° |
| 2026-05-06 19:09 | 28.56593 | -81.27863 | 965 ft | 137 kts | 246° |
| 2026-05-06 19:09 | 28.56228 | -81.28831 | 775 ft | 129 kts | 246° |
| 2026-05-06 19:09 | 28.55889 | -81.29755 | 592 ft | 126 kts | 249° |
| 2026-05-06 19:09 | 28.55572 | -81.30657 | 469 ft | 122 kts | 245° |
| 2026-05-06 19:10 | 28.55199 | -81.31512 | 354 ft | 118 kts | 241° |
| 2026-05-06 19:10 | 28.54866 | -81.32348 | 176 ft | 112 kts | 250° |
| 2026-05-06 19:10 | 28.54590 | -81.33091 | 116 ft | 88 kts | 244° |
| 2026-05-06 19:10 | 28.54440 | -81.33510 | 108 ft | 24 kts | 281° |
| 2026-05-06 19:11 | 28.54519 | -81.33669 | 108 ft | 21 kts | 312° |
| 2026-05-06 19:11 | 28.54625 | -81.33770 | 108 ft | 18 kts | 4° |
| 2026-05-06 19:11 | 28.54736 | -81.33793 | 108 ft | 17 kts | 313° |
| 2026-05-06 19:11 | 28.54826 | -81.33802 | 108 ft | 14 kts | 82° |
| 2026-05-06 19:12 | 28.54826 | -81.33785 | 108 ft | 0 kts | 95° |